Time;durP1;ratioP1;P1;durP2;ratioP2;P2;SDS_P1;SDS_P2;PMS_P1;PMS_P2;Temp;Humidity;BMP_temperature;BMP_pressure;BME280_temperature;BME280_humidity;BME280_pressure;Samples;Min_cycle;Max_cycle;Signal;HPM_P1;HPM_P2
2022/10/25 00:00:42;;;;;;;7.90;2.80;;;;;;;;;;5022852;28;20036;-77
2022/10/25 00:03:08;;;;;;;5.00;2.90;;;;;;;;;;5012928;28;20061;-77
2022/10/25 00:05:35;;;;;;;8.07;3.67;;;;;;;;;;5002848;28;20026;-77
2022/10/25 00:08:01;;;;;;;8.40;3.25;;;;;;;;;;5019088;28;20110;-77
2022/10/25 00:10:27;;;;;;;5.30;2.53;;;;;;;;;;5005435;28;20041;-76
2022/10/25 00:12:53;;;;;;;10.18;3.05;;;;;;;;;;5032615;28;20502;-77
2022/10/25 00:15:19;;;;;;;6.68;2.90;;;;;;;;;;5021926;28;20473;-77
2022/10/25 00:17:45;;;;;;;10.73;3.22;;;;;;;;;;5034320;28;20033;-81
2022/10/25 00:20:11;;;;;;;7.75;3.08;;;;;;;;;;5045018;28;20022;-77
2022/10/25 00:22:37;;;;;;;7.35;2.50;;;;;;;;;;5028622;28;20045;-77
2022/10/25 00:25:04;;;;;;;10.65;2.80;;;;;;;;;;5032521;28;20025;-76
2022/10/25 00:27:30;;;;;;;10.20;2.70;;;;;;;;;;5028771;28;20041;-76
2022/10/25 00:29:56;;;;;;;8.02;3.45;;;;;;;;;;5029728;28;20396;-78
2022/10/25 00:32:22;;;;;;;9.32;2.65;;;;;;;;;;5043268;28;20026;-78
2022/10/25 00:34:48;;;;;;;7.00;2.72;;;;;;;;;;5026255;28;20037;-77
2022/10/25 00:37:14;;;;;;;8.27;2.95;;;;;;;;;;5024418;28;20518;-78
2022/10/25 00:39:40;;;;;;;5.72;2.75;;;;;;;;;;5015273;28;20029;-75
2022/10/25 00:42:08;;;;;;;7.53;2.92;;;;;;;;;;5029249;28;20021;-77
2022/10/25 00:44:34;;;;;;;6.75;2.40;;;;;;;;;;5029674;28;20030;-77
2022/10/25 00:47:00;;;;;;;6.80;2.85;;;;;;;;;;5017857;28;20030;-77
2022/10/25 00:49:26;;;;;;;6.50;2.47;;;;;;;;;;5014619;28;20036;-78
2022/10/25 00:51:55;;;;;;;8.40;3.55;;;;;;;;;;5008878;28;20026;-77
2022/10/25 00:54:30;;;;;;;6.63;3.03;;;;;;;;;;5025738;28;20144;-77
2022/10/25 00:56:57;;;;;;;7.78;2.63;;;;;;;;;;5004319;28;20033;-77
2022/10/25 00:59:25;;;;;;;6.18;2.65;;;;;;;;;;5020280;28;20033;-77
2022/10/25 01:01:53;;;;;;;6.78;2.63;;;;;;;;;;5030136;28;20025;-80
2022/10/25 01:04:20;;;;;;;8.23;2.63;;;;;;;;;;5019610;28;20041;-79
2022/10/25 01:06:47;;;;;;;7.63;2.75;;;;;;;;;;5008575;28;20448;-79
2022/10/25 01:09:14;;;;;;;9.50;2.70;;;;;;;;;;5028711;28;20033;-79
2022/10/25 01:11:40;;;;;;;7.93;4.22;;;;;;;;;;5033702;28;20032;-80
2022/10/25 01:14:08;;;;;;;9.18;3.35;;;;;;;;;;5029060;28;20025;-79
2022/10/25 01:16:38;;;;;;;7.68;2.28;;;;;;;;;;5023001;28;20056;-79
2022/10/25 01:19:22;;;;;;;5.72;3.10;;;;;;;;;;5023366;28;20504;-79
2022/10/25 01:21:52;;;;;;;4.70;2.47;;;;;;;;;;5027243;28;20026;-79
2022/10/25 01:24:37;;;;;;;9.30;3.92;;;;;;;;;;5011379;28;20013;-79
2022/10/25 01:27:26;;;;;;;7.88;2.70;;;;;;;;;;5018215;28;20049;-77
2022/10/25 01:30:05;;;;;;;4.28;2.35;;;;;;;;;;5015457;28;20026;-79
2022/10/25 01:32:49;;;;;;;4.30;2.13;;;;;;;;;;5010369;28;20034;-79
2022/10/25 01:35:30;;;;;;;11.15;2.67;;;;;;;;;;5002826;28;20029;-79
2022/10/25 01:38:04;;;;;;;6.13;3.17;;;;;;;;;;5017104;28;20103;-77
2022/10/25 01:40:48;;;;;;;5.18;2.20;;;;;;;;;;4999410;28;20040;-78
2022/10/25 01:43:35;;;;;;;8.48;3.03;;;;;;;;;;5015644;28;20514;-79
2022/10/25 01:46:06;;;;;;;5.53;2.88;;;;;;;;;;5010511;28;20041;-78
2022/10/25 01:48:36;;;;;;;5.68;2.38;;;;;;;;;;5014515;28;20034;-77
2022/10/25 01:51:09;;;;;;;8.07;2.90;;;;;;;;;;5004355;28;20187;-79
2022/10/25 01:53:42;;;;;;;11.30;2.97;;;;;;;;;;5012601;28;20041;-77
2022/10/25 01:56:08;;;;;;;8.52;3.28;;;;;;;;;;5013007;28;20026;-78
2022/10/25 01:58:34;;;;;;;7.47;2.47;;;;;;;;;;5014405;28;20025;-78
2022/10/25 02:01:12;;;;;;;7.05;3.00;;;;;;;;;;5021769;28;20088;-78
2022/10/25 02:03:47;;;;;;;4.85;2.75;;;;;;;;;;5022396;28;20108;-78
2022/10/25 02:06:33;;;;;;;14.80;3.28;;;;;;;;;;5004527;28;20022;-79
2022/10/25 02:09:02;;;;;;;15.93;3.38;;;;;;;;;;5004716;28;20138;-79
2022/10/25 02:11:29;;;;;;;7.85;2.90;;;;;;;;;;5028699;28;20026;-73
2022/10/25 02:14:04;;;;;;;5.55;3.13;;;;;;;;;;5033215;28;20025;-78
2022/10/25 02:16:43;;;;;;;12.73;3.33;;;;;;;;;;5024521;28;20029;-78
2022/10/25 02:19:11;;;;;;;6.50;2.72;;;;;;;;;;5016620;28;20037;-80
2022/10/25 02:21:37;;;;;;;6.97;3.30;;;;;;;;;;5028305;28;20028;-79
2022/10/25 02:24:06;;;;;;;6.80;3.38;;;;;;;;;;5010002;28;20025;-78
2022/10/25 02:26:33;;;;;;;7.57;2.95;;;;;;;;;;5024042;28;20038;-78
2022/10/25 02:29:00;;;;;;;4.32;2.30;;;;;;;;;;5016896;28;20057;-78
2022/10/25 02:31:26;;;;;;;8.05;2.95;;;;;;;;;;5028569;28;20525;-78
2022/10/25 02:33:52;;;;;;;9.60;3.00;;;;;;;;;;5049277;28;20060;-80
2022/10/25 02:36:20;;;;;;;7.18;2.97;;;;;;;;;;5048609;28;20029;-80
2022/10/25 02:38:47;;;;;;;6.65;2.50;;;;;;;;;;5026658;28;20041;-78
2022/10/25 02:41:13;;;;;;;9.43;2.72;;;;;;;;;;5029888;28;20387;-78
2022/10/25 02:43:39;;;;;;;5.13;2.42;;;;;;;;;;5020602;28;20496;-78
2022/10/25 02:46:07;;;;;;;9.27;2.75;;;;;;;;;;5026523;28;20049;-79
2022/10/25 02:48:33;;;;;;;5.13;2.75;;;;;;;;;;5017884;28;20061;-79
2022/10/25 02:50:59;;;;;;;7.03;2.60;;;;;;;;;;5007377;28;20116;-79
2022/10/25 02:53:25;;;;;;;5.30;2.42;;;;;;;;;;5027542;28;20106;-79
2022/10/25 02:56:01;;;;;;;5.95;2.22;;;;;;;;;;5005010;28;20488;-79
2022/10/25 02:58:28;;;;;;;7.07;2.63;;;;;;;;;;5029357;28;20069;-78
2022/10/25 03:00:54;;;;;;;4.72;2.20;;;;;;;;;;5023685;28;20498;-76
2022/10/25 03:03:20;;;;;;;10.07;3.03;;;;;;;;;;5028041;28;20021;-77
2022/10/25 03:05:46;;;;;;;9.95;2.75;;;;;;;;;;5021984;28;20026;-79
2022/10/25 03:08:12;;;;;;;8.80;2.10;;;;;;;;;;5031299;28;20021;-79
2022/10/25 03:10:38;;;;;;;6.43;2.40;;;;;;;;;;5021621;28;20037;-79
2022/10/25 03:13:04;;;;;;;6.97;2.00;;;;;;;;;;5029767;28;20140;-79
2022/10/25 03:15:30;;;;;;;10.10;2.35;;;;;;;;;;5010392;28;20029;-79
2022/10/25 03:17:56;;;;;;;5.47;2.33;;;;;;;;;;5021453;28;20053;-77
2022/10/25 03:20:22;;;;;;;5.07;2.17;;;;;;;;;;5018259;28;20101;-78
2022/10/25 03:22:48;;;;;;;6.72;2.10;;;;;;;;;;5033627;28;20024;-78
2022/10/25 03:25:14;;;;;;;6.85;2.10;;;;;;;;;;5005119;28;20049;-79
2022/10/25 03:27:40;;;;;;;7.72;2.55;;;;;;;;;;5000530;28;20403;-79
2022/10/25 03:30:06;;;;;;;7.00;2.05;;;;;;;;;;5030899;28;20022;-78
2022/10/25 03:32:32;;;;;;;7.55;2.20;;;;;;;;;;5030360;28;20073;-79
2022/10/25 03:34:58;;;;;;;10.45;2.28;;;;;;;;;;5025133;28;20029;-77
2022/10/25 03:37:24;;;;;;;6.88;2.63;;;;;;;;;;5000495;28;20211;-78
2022/10/25 03:39:50;;;;;;;5.97;2.60;;;;;;;;;;5015183;28;20026;-77
2022/10/25 03:42:16;;;;;;;6.45;2.40;;;;;;;;;;5029980;28;20512;-78
2022/10/25 03:44:42;;;;;;;4.63;2.15;;;;;;;;;;5027064;28;20108;-77
2022/10/25 03:47:08;;;;;;;6.05;2.15;;;;;;;;;;5008518;28;20392;-76
2022/10/25 03:49:33;;;;;;;5.18;2.33;;;;;;;;;;5015996;28;20030;-78
2022/10/25 03:51:59;;;;;;;9.43;3.50;;;;;;;;;;5028276;28;20065;-78
2022/10/25 03:54:25;;;;;;;5.10;2.13;;;;;;;;;;5027178;28;20483;-78
2022/10/25 03:56:51;;;;;;;7.85;2.28;;;;;;;;;;5020588;28;20032;-78
2022/10/25 03:59:17;;;;;;;4.65;2.53;;;;;;;;;;5019233;28;20014;-78
2022/10/25 04:01:43;;;;;;;3.63;2.08;;;;;;;;;;5021606;28;20025;-79
2022/10/25 04:04:09;;;;;;;6.10;2.03;;;;;;;;;;5049091;28;20048;-80
2022/10/25 04:06:35;;;;;;;7.18;2.45;;;;;;;;;;5026674;28;20034;-80
2022/10/25 04:09:01;;;;;;;4.13;2.10;;;;;;;;;;5036499;28;20030;-78
2022/10/25 04:11:27;;;;;;;3.42;2.05;;;;;;;;;;5033962;28;20033;-76
2022/10/25 04:13:53;;;;;;;5.68;2.35;;;;;;;;;;5030757;28;20037;-79
2022/10/25 04:16:19;;;;;;;4.72;2.65;;;;;;;;;;5033286;28;20371;-79
2022/10/25 04:18:45;;;;;;;5.72;2.22;;;;;;;;;;5014841;28;20065;-77
2022/10/25 04:21:11;;;;;;;6.82;2.38;;;;;;;;;;5024707;28;20025;-77
2022/10/25 04:23:37;;;;;;;6.68;2.75;;;;;;;;;;5024023;28;20022;-78
2022/10/25 04:26:03;;;;;;;7.43;2.92;;;;;;;;;;5022457;28;20109;-77
2022/10/25 04:28:29;;;;;;;3.42;1.95;;;;;;;;;;5016170;28;20026;-78
2022/10/25 04:30:55;;;;;;;5.43;1.92;;;;;;;;;;5022217;28;20108;-78
2022/10/25 04:33:21;;;;;;;5.28;1.58;;;;;;;;;;5025906;28;20137;-76
2022/10/25 04:35:55;;;;;;;4.43;1.48;;;;;;;;;;5002741;28;20101;-79
2022/10/25 04:38:21;;;;;;;3.50;1.80;;;;;;;;;;5020340;28;20033;-79
2022/10/25 04:40:54;;;;;;;11.40;1.90;;;;;;;;;;5022244;28;20022;-78
2022/10/25 04:43:20;;;;;;;9.25;1.30;;;;;;;;;;5022600;28;20030;-79
2022/10/25 04:45:46;;;;;;;14.27;2.05;;;;;;;;;;5020213;28;20029;-78
2022/10/25 04:48:12;;;;;;;4.70;1.17;;;;;;;;;;5017977;28;20052;-79
2022/10/25 04:50:38;;;;;;;4.82;1.90;;;;;;;;;;5002397;28;20029;-79
2022/10/25 04:53:04;;;;;;;5.43;1.95;;;;;;;;;;5028394;28;20060;-78
2022/10/25 04:55:31;;;;;;;4.28;1.35;;;;;;;;;;5007526;28;20515;-79
2022/10/25 04:57:57;;;;;;;7.32;1.85;;;;;;;;;;5017779;28;20144;-77
2022/10/25 05:00:23;;;;;;;4.65;1.20;;;;;;;;;;5017459;28;20436;-78
2022/10/25 05:02:52;;;;;;;5.90;2.10;;;;;;;;;;5028182;28;20026;-78
2022/10/25 05:05:18;;;;;;;3.47;1.40;;;;;;;;;;5022367;28;20029;-79
2022/10/25 05:07:44;;;;;;;8.82;2.33;;;;;;;;;;5019665;28;20484;-79
2022/10/25 05:10:11;;;;;;;6.97;1.50;;;;;;;;;;5020888;28;20028;-79
2022/10/25 05:12:37;;;;;;;6.20;1.83;;;;;;;;;;5031683;28;20048;-76
2022/10/25 05:15:03;;;;;;;9.50;2.22;;;;;;;;;;5022803;28;20040;-79
2022/10/25 05:17:29;;;;;;;4.13;2.25;;;;;;;;;;4998759;28;20026;-79
2022/10/25 05:19:55;;;;;;;8.02;2.00;;;;;;;;;;5015497;28;20024;-78
2022/10/25 05:22:21;;;;;;;6.15;2.08;;;;;;;;;;5028985;28;20071;-79
2022/10/25 05:24:47;;;;;;;4.22;2.25;;;;;;;;;;5031165;28;20034;-79
2022/10/25 05:27:13;;;;;;;7.97;1.35;;;;;;;;;;4999863;28;20033;-80
2022/10/25 05:29:40;;;;;;;6.72;1.60;;;;;;;;;;5015774;28;20029;-81
2022/10/25 05:32:06;;;;;;;5.03;1.40;;;;;;;;;;5029070;28;20029;-79
2022/10/25 05:34:32;;;;;;;5.97;2.15;;;;;;;;;;5025466;28;20025;-75
2022/10/25 05:36:58;;;;;;;5.38;1.50;;;;;;;;;;4999808;28;20029;-74
2022/10/25 05:39:24;;;;;;;5.05;1.48;;;;;;;;;;5013309;28;20396;-77
2022/10/25 05:41:50;;;;;;;4.15;1.63;;;;;;;;;;5024864;28;20022;-78
2022/10/25 05:44:16;;;;;;;2.90;1.50;;;;;;;;;;5024517;28;20017;-77
2022/10/25 05:46:43;;;;;;;3.53;1.90;;;;;;;;;;5002115;28;20032;-79
2022/10/25 05:49:09;;;;;;;10.88;2.78;;;;;;;;;;5015693;28;20056;-79
2022/10/25 05:51:35;;;;;;;8.20;2.70;;;;;;;;;;5027730;28;20114;-78
2022/10/25 05:54:02;;;;;;;8.20;2.58;;;;;;;;;;5026205;28;20037;-80
2022/10/25 05:56:29;;;;;;;9.55;2.63;;;;;;;;;;5020735;28;20030;-80
2022/10/25 05:58:56;;;;;;;8.02;2.65;;;;;;;;;;5018500;28;20042;-81
2022/10/25 06:01:22;;;;;;;8.90;2.88;;;;;;;;;;5037695;28;20071;-80
2022/10/25 06:03:52;;;;;;;6.07;2.63;;;;;;;;;;5027174;28;20437;-79
2022/10/25 06:06:19;;;;;;;7.95;2.28;;;;;;;;;;5022437;28;20017;-79
2022/10/25 06:08:45;;;;;;;8.70;2.20;;;;;;;;;;5010844;28;20527;-78
2022/10/25 06:11:13;;;;;;;4.95;2.17;;;;;;;;;;5023162;28;20029;-79
2022/10/25 06:13:42;;;;;;;8.18;2.15;;;;;;;;;;5022293;28;20026;-79
2022/10/25 06:16:12;;;;;;;8.45;2.22;;;;;;;;;;5022741;28;20495;-79
2022/10/25 06:18:38;;;;;;;6.40;2.03;;;;;;;;;;5013568;28;20323;-79
2022/10/25 06:21:09;;;;;;;6.38;1.52;;;;;;;;;;5022196;28;20021;-78
2022/10/25 06:23:37;;;;;;;6.07;1.80;;;;;;;;;;5029600;28;20018;-80
2022/10/25 06:26:04;;;;;;;7.95;1.48;;;;;;;;;;5006723;28;20022;-77
2022/10/25 06:28:31;;;;;;;7.40;1.70;;;;;;;;;;5018160;28;20026;-79
2022/10/25 06:31:00;;;;;;;5.82;2.25;;;;;;;;;;5031904;28;20026;-77
2022/10/25 06:33:26;;;;;;;7.90;2.65;;;;;;;;;;5014026;28;20447;-78
2022/10/25 06:35:56;;;;;;;5.25;1.90;;;;;;;;;;5019901;28;20096;-79
2022/10/25 06:38:22;;;;;;;2.92;1.00;;;;;;;;;;5012635;28;20014;-79
2022/10/25 06:40:48;;;;;;;4.15;1.40;;;;;;;;;;5019279;28;20108;-78
2022/10/25 06:43:14;;;;;;;3.63;1.17;;;;;;;;;;5013424;28;20102;-79
2022/10/25 06:45:43;;;;;;;5.57;1.60;;;;;;;;;;5011928;28;20555;-79
2022/10/25 06:48:09;;;;;;;5.43;1.48;;;;;;;;;;5014756;28;20368;-79
2022/10/25 06:50:35;;;;;;;4.28;1.40;;;;;;;;;;5022413;28;20057;-78
2022/10/25 06:53:01;;;;;;;5.10;1.98;;;;;;;;;;5017041;28;20373;-79
2022/10/25 06:55:27;;;;;;;5.70;1.70;;;;;;;;;;5026830;28;20021;-78
2022/10/25 06:57:55;;;;;;;4.60;2.10;;;;;;;;;;5014075;28;20105;-78
2022/10/25 07:00:22;;;;;;;6.47;1.58;;;;;;;;;;5014643;28;20025;-79
2022/10/25 07:02:55;;;;;;;7.00;1.55;;;;;;;;;;5026728;28;20025;-81
2022/10/25 07:05:21;;;;;;;6.95;1.70;;;;;;;;;;5016631;28;20172;-79
2022/10/25 07:07:47;;;;;;;3.75;1.63;;;;;;;;;;5014428;28;20080;-78
2022/10/25 07:10:13;;;;;;;4.63;1.35;;;;;;;;;;5014740;28;20021;-78
2022/10/25 07:12:39;;;;;;;4.47;1.25;;;;;;;;;;5015309;28;20143;-79
2022/10/25 07:15:06;;;;;;;4.90;1.65;;;;;;;;;;5031421;28;20022;-79
2022/10/25 07:17:32;;;;;;;4.25;1.60;;;;;;;;;;5014523;28;20022;-78
2022/10/25 07:19:58;;;;;;;4.00;2.00;;;;;;;;;;5028012;28;20071;-78
2022/10/25 07:22:24;;;;;;;4.35;1.38;;;;;;;;;;5014918;28;20018;-78
2022/10/25 07:24:50;;;;;;;4.75;1.60;;;;;;;;;;5027948;28;20029;-78
2022/10/25 07:27:16;;;;;;;5.95;1.02;;;;;;;;;;4995716;28;20021;-78
2022/10/25 07:29:43;;;;;;;8.98;1.45;;;;;;;;;;4996296;28;20026;-78
2022/10/25 07:32:09;;;;;;;3.72;1.40;;;;;;;;;;4996610;28;20018;-78
2022/10/25 07:34:35;;;;;;;6.18;1.60;;;;;;;;;;5026591;28;20048;-78
2022/10/25 07:37:02;;;;;;;4.03;1.50;;;;;;;;;;5014433;28;20014;-78
2022/10/25 07:39:28;;;;;;;6.15;1.65;;;;;;;;;;5026878;28;20030;-78
2022/10/25 07:41:54;;;;;;;4.97;1.83;;;;;;;;;;5014675;28;20029;-78
2022/10/25 07:44:21;;;;;;;10.07;1.23;;;;;;;;;;5039162;28;20069;-78
2022/10/25 07:46:50;;;;;;;3.85;1.02;;;;;;;;;;5015970;28;20399;-79
2022/10/25 07:49:16;;;;;;;7.13;1.10;;;;;;;;;;5016400;28;20492;-79
2022/10/25 07:51:43;;;;;;;6.97;1.30;;;;;;;;;;4998815;28;20053;-79
2022/10/25 07:54:09;;;;;;;4.93;1.40;;;;;;;;;;5025794;28;20037;-80
2022/10/25 07:56:35;;;;;;;5.55;1.30;;;;;;;;;;5000237;28;20349;-78
2022/10/25 07:59:01;;;;;;;4.38;1.13;;;;;;;;;;5013076;28;20107;-79
2022/10/25 08:01:27;;;;;;;3.28;1.25;;;;;;;;;;5014311;28;20049;-77
2022/10/25 08:03:54;;;;;;;4.95;1.48;;;;;;;;;;5026072;28;20030;-77
2022/10/25 08:06:21;;;;;;;5.25;1.20;;;;;;;;;;5012653;28;20393;-77
2022/10/25 08:08:47;;;;;;;3.15;1.13;;;;;;;;;;5012536;28;20364;-79
2022/10/25 08:11:13;;;;;;;12.15;2.08;;;;;;;;;;4995528;28;20057;-78
2022/10/25 08:13:39;;;;;;;3.03;1.05;;;;;;;;;;4995344;28;20070;-79
2022/10/25 08:16:05;;;;;;;3.70;1.02;;;;;;;;;;5013197;28;20030;-78
2022/10/25 08:18:32;;;;;;;5.55;1.17;;;;;;;;;;5012105;28;20049;-77
2022/10/25 08:21:00;;;;;;;2.10;0.90;;;;;;;;;;5013376;28;20022;-78
2022/10/25 08:23:26;;;;;;;5.75;1.40;;;;;;;;;;5017395;28;20029;-78
2022/10/25 08:25:52;;;;;;;3.63;0.93;;;;;;;;;;5023176;28;20106;-79
2022/10/25 08:28:18;;;;;;;3.97;1.20;;;;;;;;;;5015780;28;20026;-78
2022/10/25 08:30:44;;;;;;;5.60;1.52;;;;;;;;;;5012997;28;20030;-78
2022/10/25 08:33:10;;;;;;;7.28;1.48;;;;;;;;;;5012433;28;20038;-79
2022/10/25 08:35:36;;;;;;;6.30;1.48;;;;;;;;;;5012159;28;20026;-77
2022/10/25 08:38:06;;;;;;;1.80;0.75;;;;;;;;;;5011848;28;20441;-80
2022/10/25 08:40:40;;;;;;;4.70;1.35;;;;;;;;;;5015264;28;20029;-80
2022/10/25 08:43:09;;;;;;;7.60;1.52;;;;;;;;;;5017160;28;20020;-79
2022/10/25 08:45:38;;;;;;;4.43;1.23;;;;;;;;;;5014038;28;20101;-76
2022/10/25 08:48:05;;;;;;;7.20;1.30;;;;;;;;;;5013651;28;20072;-78
2022/10/25 08:50:34;;;;;;;3.80;1.15;;;;;;;;;;5027533;28;20044;-78
2022/10/25 08:53:03;;;;;;;4.60;1.92;;;;;;;;;;5013198;28;20415;-78
2022/10/25 08:55:31;;;;;;;3.58;1.17;;;;;;;;;;5014198;28;20053;-78
2022/10/25 08:57:59;;;;;;;5.05;1.48;;;;;;;;;;5013695;28;20105;-78
2022/10/25 09:00:27;;;;;;;3.60;1.15;;;;;;;;;;5012252;28;20028;-77
2022/10/25 09:02:57;;;;;;;5.07;1.48;;;;;;;;;;5013100;28;20026;-78
2022/10/25 09:06:01;;;;;;;3.50;1.60;;;;;;;;;;5012763;28;20522;-78
2022/10/25 09:08:30;;;;;;;5.43;1.17;;;;;;;;;;4952097;29;20035;-77
2022/10/25 09:10:58;;;;;;;5.72;1.45;;;;;;;;;;4952375;29;20031;-77
2022/10/25 09:13:27;;;;;;;6.32;1.25;;;;;;;;;;4976896;28;20034;-77
2022/10/25 09:16:04;;;;;;;6.05;1.45;;;;;;;;;;5022950;28;20021;-78
2022/10/25 09:18:40;;;;;;;3.08;0.90;;;;;;;;;;5008511;28;20018;-78
2022/10/25 09:21:09;;;;;;;7.22;1.80;;;;;;;;;;4994344;28;20034;-78
2022/10/25 09:23:35;;;;;;;5.28;1.08;;;;;;;;;;5012266;28;20050;-79
2022/10/25 09:26:15;;;;;;;2.80;0.95;;;;;;;;;;5024415;28;20022;-78
2022/10/25 09:28:48;;;;;;;7.10;1.00;;;;;;;;;;5012410;28;20399;-79
2022/10/25 09:31:16;;;;;;;3.72;1.27;;;;;;;;;;5012142;28;20053;-78
2022/10/25 09:33:45;;;;;;;2.17;1.20;;;;;;;;;;5011549;28;20033;-79
2022/10/25 09:36:11;;;;;;;10.45;1.10;;;;;;;;;;5012262;28;20033;-78
2022/10/25 09:38:39;;;;;;;7.60;1.73;;;;;;;;;;5016265;28;20022;-78
2022/10/25 09:41:05;;;;;;;5.30;1.60;;;;;;;;;;5019683;28;20098;-78
2022/10/25 09:43:34;;;;;;;7.18;1.33;;;;;;;;;;5011246;28;20116;-78
2022/10/25 09:46:06;;;;;;;7.82;1.13;;;;;;;;;;5010231;28;20041;-79
2022/10/25 09:48:45;;;;;;;5.85;1.23;;;;;;;;;;5010695;28;20702;-78
2022/10/25 09:51:29;;;;;;;4.43;1.13;;;;;;;;;;5011682;28;20033;-78
2022/10/25 09:53:56;;;;;;;5.63;1.33;;;;;;;;;;4999975;28;20030;-78
2022/10/25 09:56:22;;;;;;;3.58;1.33;;;;;;;;;;5011909;28;20029;-79
2022/10/25 09:58:48;;;;;;;7.03;1.30;;;;;;;;;;5011503;28;20026;-78
2022/10/25 10:01:20;;;;;;;3.08;1.10;;;;;;;;;;5012489;28;20014;-77
2022/10/25 10:03:46;;;;;;;6.22;1.35;;;;;;;;;;5012378;28;20384;-79
2022/10/25 10:06:19;;;;;;;2.33;0.90;;;;;;;;;;5012253;28;20498;-79
2022/10/25 10:08:48;;;;;;;7.20;1.58;;;;;;;;;;5011593;28;20026;-81
2022/10/25 10:11:16;;;;;;;5.35;1.30;;;;;;;;;;5012602;28;20041;-79
2022/10/25 10:13:48;;;;;;;5.22;1.30;;;;;;;;;;5025777;28;20105;-78
2022/10/25 10:16:17;;;;;;;3.03;1.08;;;;;;;;;;5011848;28;20028;-79
2022/10/25 10:18:44;;;;;;;8.45;1.63;;;;;;;;;;5000119;28;20044;-80
2022/10/25 10:21:13;;;;;;;2.22;1.05;;;;;;;;;;5021657;28;20036;-79
2022/10/25 10:24:01;;;;;;;4.47;0.88;;;;;;;;;;5027093;28;20033;-78
2022/10/25 10:26:42;;;;;;;4.60;1.48;;;;;;;;;;5012629;28;20036;-77
2022/10/25 10:29:08;;;;;;;7.32;1.55;;;;;;;;;;5021787;28;20481;-77
2022/10/25 10:31:36;;;;;;;3.40;0.90;;;;;;;;;;5015956;28;20101;-78
2022/10/25 10:34:02;;;;;;;8.90;1.50;;;;;;;;;;5016091;28;20022;-78
2022/10/25 10:36:29;;;;;;;8.15;1.10;;;;;;;;;;5018897;28;20034;-80
2022/10/25 10:39:15;;;;;;;4.93;1.20;;;;;;;;;;5016301;28;20022;-78
2022/10/25 10:41:52;;;;;;;3.10;1.20;;;;;;;;;;5031173;28;20030;-77
2022/10/25 10:44:18;;;;;;;2.60;0.93;;;;;;;;;;5017031;28;20060;-79
2022/10/25 10:46:46;;;;;;;2.80;0.80;;;;;;;;;;5016209;28;20045;-79
2022/10/25 10:49:16;;;;;;;4.03;0.93;;;;;;;;;;5004776;28;20054;-78
2022/10/25 10:51:44;;;;;;;10.27;1.13;;;;;;;;;;5031895;28;20470;-79
2022/10/25 10:54:24;;;;;;;5.00;1.08;;;;;;;;;;5029904;28;20030;-79
2022/10/25 10:57:16;;;;;;;4.35;0.95;;;;;;;;;;5028462;28;20025;-79
2022/10/25 10:59:51;;;;;;;4.93;1.42;;;;;;;;;;4994836;28;20121;-80
2022/10/25 11:02:20;;;;;;;4.03;0.95;;;;;;;;;;5028077;28;20105;-80
2022/10/25 11:04:54;;;;;;;3.55;0.90;;;;;;;;;;5022585;28;20079;-80
2022/10/25 11:07:31;;;;;;;8.18;2.10;;;;;;;;;;5001009;28;20037;-79
2022/10/25 11:10:15;;;;;;;3.50;1.10;;;;;;;;;;5017717;28;20032;-78
2022/10/25 11:12:41;;;;;;;3.72;1.05;;;;;;;;;;5019360;28;20030;-78
2022/10/25 11:15:14;;;;;;;5.65;1.05;;;;;;;;;;5019223;28;20026;-78
2022/10/25 11:17:45;;;;;;;6.22;1.15;;;;;;;;;;5022658;28;20033;-76
2022/10/25 11:20:11;;;;;;;2.25;1.15;;;;;;;;;;5032857;28;20034;-81
2022/10/25 11:22:44;;;;;;;3.33;0.90;;;;;;;;;;5038239;28;20018;-81
2022/10/25 11:25:10;;;;;;;9.60;1.40;;;;;;;;;;5037605;28;20153;-82
2022/10/25 11:27:49;;;;;;;4.85;1.05;;;;;;;;;;5028747;28;20113;-79
2022/10/25 11:30:17;;;;;;;3.70;0.85;;;;;;;;;;5036489;28;20029;-80
2022/10/25 11:33:04;;;;;;;4.43;1.20;;;;;;;;;;5003605;28;20030;-79
2022/10/25 11:35:37;;;;;;;5.22;1.00;;;;;;;;;;4992415;28;20056;-80
2022/10/25 11:38:12;;;;;;;6.40;1.35;;;;;;;;;;5015433;28;20064;-78
2022/10/25 11:40:44;;;;;;;7.38;1.17;;;;;;;;;;5021765;28;20032;-78
2022/10/25 11:43:10;;;;;;;5.13;1.48;;;;;;;;;;5001700;28;20040;-79
2022/10/25 11:45:47;;;;;;;5.40;1.00;;;;;;;;;;5014847;28;20093;-78
2022/10/25 11:48:16;;;;;;;3.20;1.10;;;;;;;;;;5015412;28;20030;-81
2022/10/25 11:50:48;;;;;;;4.53;1.20;;;;;;;;;;5033788;28;20029;-78
2022/10/25 11:53:16;;;;;;;4.13;0.82;;;;;;;;;;5018265;28;20477;-79
2022/10/25 11:55:59;;;;;;;7.57;1.17;;;;;;;;;;5022268;28;20029;-78
2022/10/25 11:58:44;;;;;;;3.35;0.90;;;;;;;;;;5017412;28;20021;-76
2022/10/25 12:01:28;;;;;;;4.57;1.00;;;;;;;;;;5014222;28;20085;-78
2022/10/25 12:03:54;;;;;;;4.75;1.17;;;;;;;;;;5005815;28;20092;-79
2022/10/25 12:06:24;;;;;;;4.00;1.20;;;;;;;;;;5017657;28;20034;-79
2022/10/25 12:08:53;;;;;;;8.15;1.30;;;;;;;;;;5012357;28;20049;-79
2022/10/25 12:11:25;;;;;;;4.40;0.88;;;;;;;;;;5014901;28;20033;-80
2022/10/25 12:13:52;;;;;;;1.42;0.68;;;;;;;;;;5014327;28;20512;-80
2022/10/25 12:16:19;;;;;;;4.15;1.08;;;;;;;;;;5012408;28;20026;-80
2022/10/25 12:18:47;;;;;;;3.88;0.93;;;;;;;;;;5013181;28;20021;-81
2022/10/25 12:21:19;;;;;;;4.13;1.13;;;;;;;;;;5014628;28;20026;-81
2022/10/25 12:23:50;;;;;;;5.22;1.15;;;;;;;;;;5013868;28;20057;-78
2022/10/25 12:26:15;;;;;;;2.53;0.88;;;;;;;;;;5013322;28;20104;-79
2022/10/25 12:28:41;;;;;;;2.95;0.40;;;;;;;;;;5012648;28;20116;-79
2022/10/25 12:31:12;;;;;;;4.95;1.05;;;;;;;;;;5013654;28;20033;-78
2022/10/25 12:33:40;;;;;;;2.15;0.75;;;;;;;;;;4995388;28;20519;-78
2022/10/25 12:36:09;;;;;;;3.70;1.02;;;;;;;;;;5013272;28;20022;-78
2022/10/25 12:38:39;;;;;;;2.88;1.45;;;;;;;;;;5017726;28;20025;-78
2022/10/25 12:41:17;;;;;;;2.67;0.57;;;;;;;;;;5003967;28;20077;-78
2022/10/25 12:44:03;;;;;;;3.05;0.80;;;;;;;;;;5018847;28;20025;-78
2022/10/25 12:46:41;;;;;;;2.83;1.15;;;;;;;;;;5017272;28;20034;-77
2022/10/25 12:49:26;;;;;;;8.10;1.17;;;;;;;;;;5012875;28;20188;-77
2022/10/25 12:52:11;;;;;;;5.05;0.85;;;;;;;;;;4995289;28;20074;-78
2022/10/25 12:54:52;;;;;;;6.55;1.17;;;;;;;;;;5015183;28;20109;-77
2022/10/25 12:57:18;;;;;;;;;;;;;;;;;;5028634;28;20469;-78
2022/10/25 12:59:51;;;;;;;2.95;1.10;;;;;;;;;;5028664;28;19920;-77
2022/10/25 13:02:36;;;;;;;4.60;1.23;;;;;;;;;;5040499;28;20436;-78
2022/10/25 13:05:08;;;;;;;4.60;1.02;;;;;;;;;;5027973;28;20034;-79
2022/10/25 13:07:35;;;;;;;3.20;0.82;;;;;;;;;;5013711;28;20524;-78
2022/10/25 13:10:04;;;;;;;4.25;0.80;;;;;;;;;;5016496;28;20076;-78
2022/10/25 13:12:30;;;;;;;3.67;0.82;;;;;;;;;;5024215;28;20121;-78
2022/10/25 13:14:58;;;;;;;3.65;0.80;;;;;;;;;;5012992;28;20646;-78
2022/10/25 13:17:24;;;;;;;4.00;0.90;;;;;;;;;;5013291;28;20030;-78
2022/10/25 13:19:52;;;;;;;3.20;0.75;;;;;;;;;;5028696;28;20455;-79
2022/10/25 13:22:40;;;;;;;7.07;0.90;;;;;;;;;;5023217;28;20021;-79
2022/10/25 13:25:12;;;;;;;4.05;0.93;;;;;;;;;;5015653;28;20029;-79
2022/10/25 13:27:39;;;;;;;5.22;0.90;;;;;;;;;;5015375;28;20021;-78
2022/10/25 13:30:11;;;;;;;2.28;1.15;;;;;;;;;;4995500;28;20026;-79
2022/10/25 13:32:41;;;;;;;4.38;0.80;;;;;;;;;;5013405;28;20119;-79
2022/10/25 13:35:34;;;;;;;6.45;0.95;;;;;;;;;;5011948;28;20425;-79
2022/10/25 13:38:07;;;;;;;2.25;0.93;;;;;;;;;;4988530;28;20030;-78
2022/10/25 13:40:33;;;;;;;5.93;1.30;;;;;;;;;;4999893;28;20026;-78
2022/10/25 13:42:59;;;;;;;4.43;0.80;;;;;;;;;;5026010;28;20049;-79
2022/10/25 13:45:34;;;;;;;2.50;1.00;;;;;;;;;;5011997;28;20026;-78
2022/10/25 13:48:07;;;;;;;4.97;1.00;;;;;;;;;;5011394;28;20352;-78
2022/10/25 13:50:41;;;;;;;3.78;0.75;;;;;;;;;;5011975;28;20105;-77
2022/10/25 13:53:07;;;;;;;4.60;1.27;;;;;;;;;;5011843;28;20038;-76
2022/10/25 13:55:35;;;;;;;4.75;1.20;;;;;;;;;;5011294;28;20476;-77
2022/10/25 13:58:01;;;;;;;3.28;0.90;;;;;;;;;;5011131;28;20037;-76
2022/10/25 14:00:32;;;;;;;3.03;0.88;;;;;;;;;;5011512;28;20022;-77
2022/10/25 14:03:12;;;;;;;2.75;0.77;;;;;;;;;;5011992;28;20025;-78
2022/10/25 14:05:53;;;;;;;4.20;0.80;;;;;;;;;;4999456;28;20037;-77
2022/10/25 14:08:22;;;;;;;5.90;1.30;;;;;;;;;;5010960;28;20080;-77
2022/10/25 14:10:49;;;;;;;7.13;1.08;;;;;;;;;;4997403;28;20032;-77
2022/10/25 14:13:21;;;;;;;2.65;1.25;;;;;;;;;;5006887;28;20546;-77
2022/10/25 14:15:50;;;;;;;2.47;1.00;;;;;;;;;;4994449;28;20026;-80
2022/10/25 14:18:18;;;;;;;5.03;1.05;;;;;;;;;;5024418;28;20032;-77
2022/10/25 14:20:46;;;;;;;3.20;1.02;;;;;;;;;;5020182;28;20017;-77
2022/10/25 14:23:20;;;;;;;6.00;1.23;;;;;;;;;;5016526;28;20110;-77
2022/10/25 14:25:51;;;;;;;5.00;1.13;;;;;;;;;;5012215;28;20053;-78
2022/10/25 14:28:21;;;;;;;7.75;1.35;;;;;;;;;;5011136;28;20500;-75
2022/10/25 14:30:49;;;;;;;3.28;1.40;;;;;;;;;;5012070;28;20034;-77
2022/10/25 14:33:24;;;;;;;2.88;1.13;;;;;;;;;;4994059;28;20418;-78
2022/10/25 14:35:51;;;;;;;7.25;1.50;;;;;;;;;;5021097;28;20028;-78
2022/10/25 14:38:19;;;;;;;5.00;1.00;;;;;;;;;;5014572;28;20449;-78
2022/10/25 14:40:51;;;;;;;4.80;1.15;;;;;;;;;;5012092;28;20135;-77
2022/10/25 14:43:31;;;;;;;6.05;1.25;;;;;;;;;;5013329;28;20060;-77
2022/10/25 14:46:01;;;;;;;3.35;1.13;;;;;;;;;;5009606;28;20022;-79
2022/10/25 14:48:28;;;;;;;3.17;1.20;;;;;;;;;;5060715;23;20048;-78
2022/10/25 14:50:55;;;;;;;2.78;0.98;;;;;;;;;;5072704;28;20028;-78
2022/10/25 14:53:21;;;;;;;6.47;1.10;;;;;;;;;;5053430;28;20477;-78
2022/10/25 14:55:54;;;;;;;3.97;1.48;;;;;;;;;;5072153;28;20028;-78